Time;durP1;ratioP1;P1;durP2;ratioP2;P2;SDS_P1;SDS_P2;PMS_P1;PMS_P2;Temp;Humidity;BMP_temperature;BMP_pressure;BME280_temperature;BME280_humidity;BME280_pressure;Samples;Min_cycle;Max_cycle;Signal;HPM_P1;HPM_P2
2022/04/30 00:02:30;;;;;;;3.77;2.87;;;;;;;9.29;100.00;100945.56;31382526;28;20043;-71
2022/04/30 00:17:32;;;;;;;6.07;3.20;;;;;;;9.39;100.00;100936.66;31365558;28;20079;-71
2022/04/30 00:32:34;;;;;;;5.27;3.50;;;;;;;9.37;100.00;100922.75;31387595;28;20037;-70
2022/04/30 00:47:36;;;;;;;9.50;3.93;;;;;;;9.31;100.00;100921.56;31379101;28;20053;-70
2022/04/30 01:02:38;;;;;;;8.13;4.17;;;;;;;9.22;100.00;100911.91;31373869;28;20548;-70
2022/04/30 01:17:42;;;;;;;8.33;4.83;;;;;;;9.27;100.00;100902.63;31382324;28;20056;-69
2022/04/30 01:48:05;;;;;;;9.47;5.40;;;;;;;9.27;100.00;100904.53;31373295;28;20044;-69
2022/04/30 02:03:09;;;;;;;6.83;3.90;;;;;;;9.19;100.00;100895.69;31396724;28;20055;-69
2022/04/30 02:18:13;;;;;;;7.10;3.90;;;;;;;9.13;100.00;100887.16;31415313;28;20148;-69
2022/04/30 02:33:17;;;;;;;4.20;3.20;;;;;;;9.09;100.00;100891.81;31378067;28;20048;-69
2022/04/30 02:48:19;;;;;;;4.00;2.70;;;;;;;9.09;100.00;100899.94;31386071;28;20053;-69
2022/04/30 03:03:22;;;;;;;4.27;2.93;;;;;;;9.05;100.00;100907.28;31370738;28;20044;-69
2022/04/30 03:33:48;;;;;;;4.93;2.97;;;;;;;9.10;100.00;100908.84;31379699;28;20041;-70
2022/04/30 03:48:53;;;;;;;4.83;2.60;;;;;;;9.18;100.00;100905.75;31343384;28;20057;-71
2022/04/30 04:03:58;;;;;;;3.63;2.90;;;;;;;9.22;100.00;100900.28;31374525;28;20052;-71
2022/04/30 04:19:00;;;;;;;4.73;2.63;;;;;;;9.39;100.00;100904.16;31378532;28;20053;-70
2022/04/30 04:34:02;;;;;;;4.77;2.80;;;;;;;9.43;100.00;100908.41;31373518;28;20473;-70
2022/04/30 04:49:06;;;;;;;3.47;2.33;;;;;;;9.93;100.00;100905.50;31340357;28;20052;-70
2022/04/30 05:04:10;;;;;;;3.50;2.30;;;;;;;11.59;93.16;100917.09;31361878;28;20052;-72
2022/04/30 05:19:12;;;;;;;2.67;2.07;;;;;;;12.57;92.37;100926.38;31388454;28;20056;-72
2022/04/30 05:34:14;;;;;;;2.67;1.97;;;;;;;11.97;86.89;100921.75;31369783;28;20037;-71
2022/04/30 05:49:16;;;;;;;4.13;2.23;;;;;;;11.59;87.82;100930.69;31397924;28;20061;-74
2022/04/30 06:04:18;;;;;;;3.33;2.27;;;;;;;12.21;87.66;100923.38;31381544;28;20469;-70
2022/04/30 06:19:20;;;;;;;2.87;1.73;;;;;;;13.60;82.13;100930.13;31395808;28;20432;-70
2022/04/30 06:34:22;;;;;;;1.97;1.30;;;;;;;13.41;86.01;100944.53;31375757;28;20056;-71
2022/04/30 06:49:24;;;;;;;2.63;1.47;;;;;;;14.03;81.54;100940.19;31383742;28;20053;-71
2022/04/30 07:04:26;;;;;;;1.83;1.30;;;;;;;14.58;75.53;100926.53;31385710;28;20045;-70
2022/04/30 07:19:28;;;;;;;2.00;1.40;;;;;;;15.43;75.39;100926.38;31368892;28;20053;-72
2022/04/30 07:34:30;;;;;;;1.50;1.10;;;;;;;15.24;70.65;100921.81;31413095;28;20049;-69
2022/04/30 07:49:32;;;;;;;1.67;1.33;;;;;;;14.87;74.42;100915.72;31389432;28;20052;-72
2022/04/30 08:04:34;;;;;;;3.70;1.77;;;;;;;14.79;72.93;100908.88;31405616;28;20048;-73
2022/04/30 08:19:36;;;;;;;1.00;0.80;;;;;;;14.86;69.24;100899.75;31390460;28;20059;-70
2022/04/30 08:34:44;;;;;;;1.37;1.13;;;;;;;15.31;71.14;100897.78;31347641;28;20119;-79
2022/04/30 08:49:49;;;;;;;1.10;1.00;;;;;;;16.35;64.23;100888.16;31414359;28;20055;-80
2022/04/30 09:04:55;;;;;;;2.03;1.20;;;;;;;18.07;53.65;100883.84;31447838;28;20094;-79
2022/04/30 09:19:59;;;;;;;3.42;0.90;;;;;;;17.38;56.70;100884.78;31416394;28;20052;-78
2022/04/30 10:05:44;;;;;;;2.13;1.00;;;;;;;16.31;57.90;100860.09;31395392;28;20152;-76
2022/04/30 10:20:56;;;;;;;0.80;0.80;;;;;;;17.70;45.55;100847.97;31384419;28;20049;-76
2022/04/30 10:36:07;;;;;;;0.98;0.85;;;;;;;18.51;39.73;100846.00;31383397;28;20049;-78
2022/04/30 10:51:15;;;;;;;2.80;1.73;;;;;;;17.47;43.46;100825.69;31395879;28;20053;-78
2022/04/30 11:06:22;;;;;;;14.60;4.43;;;;;;;17.37;36.27;100814.63;31400573;28;20065;-75
2022/04/30 11:21:30;;;;;;;1.50;0.90;;;;;;;18.50;36.35;100822.47;31402022;28;20045;-76
2022/04/30 11:36:41;;;;;;;1.27;0.98;;;;;;;18.65;38.78;100801.47;31398945;28;20052;-79
2022/04/30 11:51:44;;;;;;;1.92;0.77;;;;;;;17.69;42.45;100782.53;31443372;28;20056;-80
2022/04/30 12:06:58;;;;;;;1.53;0.80;;;;;;;17.05;34.33;100773.88;31380761;28;20080;-77
2022/04/30 12:37:33;;;;;;;1.83;0.90;;;;;;;16.75;38.06;100749.88;31447660;28;20055;-78
2022/04/30 12:52:42;;;;;;;1.00;0.80;;;;;;;16.38;39.93;100755.75;31407620;28;20049;-78
2022/04/30 13:07:44;;;;;;;1.87;1.10;;;;;;;16.30;42.59;100748.22;31443412;28;20131;-78
2022/04/30 13:22:46;;;;;;;2.57;1.30;;;;;;;16.16;42.19;100748.69;31464486;28;20083;-78
2022/04/30 13:37:48;;;;;;;2.37;1.27;;;;;;;15.95;43.22;100739.94;31505633;28;20139;-78
2022/04/30 13:52:50;;;;;;;2.43;0.97;;;;;;;15.60;41.92;100730.09;31420940;28;20049;-77
2022/04/30 14:07:52;;;;;;;1.30;1.10;;;;;;;15.60;34.62;100730.09;31465158;28;20071;-79
2022/04/30 14:22:54;;;;;;;1.80;1.00;;;;;;;15.49;45.00;100724.16;31374818;28;20472;-78
2022/04/30 14:37:57;;;;;;;27.30;10.00;;;;;;;15.10;42.59;100715.13;31428411;28;20053;-77
2022/04/30 14:52:59;;;;;;;2.83;1.20;;;;;;;15.08;44.81;100703.88;31413453;28;20468;-78
2022/04/30 15:08:02;;;;;;;3.27;1.50;;;;;;;14.98;48.01;100696.72;31421622;28;20491;-77
2022/04/30 15:23:04;;;;;;;6.33;1.63;;;;;;;14.96;48.90;100701.84;31396509;28;20070;-78
2022/04/30 15:38:06;;;;;;;4.13;2.03;;;;;;;14.87;49.14;100712.66;31464900;28;20495;-78
2022/04/30 15:53:08;;;;;;;1.53;1.00;;;;;;;14.74;51.92;100706.38;31378126;28;20136;-77
2022/04/30 16:08:11;;;;;;;18.10;10.17;;;;;;;14.73;53.18;100724.75;31406990;28;20053;-76
2022/04/30 16:23:13;;;;;;;3.40;2.10;;;;;;;14.66;55.39;100709.28;31416758;28;20510;-79
2022/04/30 16:38:15;;;;;;;4.37;1.60;;;;;;;14.51;56.57;100723.75;31413120;28;20072;-80
2022/04/30 16:53:17;;;;;;;4.67;2.33;;;;;;;14.37;58.03;100729.56;31404181;28;20055;-79
2022/04/30 17:09:06;;;;;;;4.57;2.13;;;;;;;14.25;50.48;100744.69;31417670;28;20049;-78
2022/04/30 17:24:08;;;;;;;5.83;2.70;;;;;;;14.17;59.60;100754.25;31431295;28;20045;-78
2022/04/30 17:39:10;;;;;;;4.77;2.33;;;;;;;14.16;61.72;100756.22;31449166;28;20121;-78
2022/04/30 17:54:13;;;;;;;8.27;3.33;;;;;;;14.07;62.14;100755.25;31413677;28;20148;-77
2022/04/30 18:09:15;;;;;;;21.90;10.50;;;;;;;13.97;62.90;100768.72;31381181;28;20048;-78
2022/04/30 18:24:16;;;;;;;7.63;4.10;;;;;;;13.63;64.66;100776.53;31399527;28;20637;-77
2022/04/30 18:39:18;;;;;;;16.37;7.83;;;;;;;13.26;67.04;100785.84;31469105;28;20060;-79
2022/04/30 19:09:40;;;;;;;13.50;6.43;;;;;;;12.93;69.79;100795.81;31355427;28;20144;-78
2022/04/30 19:24:43;;;;;;;77.40;33.10;;;;;;;12.84;70.29;100804.50;31422458;28;20461;-77
2022/04/30 19:39:52;;;;;;;26.83;12.73;;;;;;;12.77;69.74;100804.63;31368549;28;20063;-79
2022/04/30 19:54:54;;;;;;;9.83;5.43;;;;;;;12.74;69.60;100815.63;31352179;28;20060;-80
2022/04/30 20:09:55;;;;;;;12.80;4.90;;;;;;;12.67;69.98;100815.72;31389364;28;20069;-77
2022/04/30 20:24:57;;;;;;;11.03;4.27;;;;;;;12.52;70.89;100810.50;31345193;28;20049;-78
2022/04/30 20:39:59;;;;;;;7.37;3.57;;;;;;;12.45;70.37;100820.75;31352808;28;20056;-78
2022/04/30 20:55:02;;;;;;;6.87;4.53;;;;;;;12.41;68.64;100820.03;31384445;28;20049;-79
2022/04/30 21:10:05;;;;;;;6.70;3.33;;;;;;;12.20;70.29;100821.13;31422730;28;20052;-78
2022/04/30 21:25:07;;;;;;;7.23;2.93;;;;;;;11.97;71.25;100830.00;31421406;28;20091;-78
2022/04/30 21:40:10;;;;;;;4.07;2.73;;;;;;;11.69;72.81;100835.78;31352926;28;20059;-78
2022/04/30 22:10:32;;;;;;;5.03;3.53;;;;;;;11.08;72.12;100831.06;31341187;28;20522;-77
2022/04/30 22:25:34;;;;;;;6.40;3.70;;;;;;;10.84;72.66;100821.19;31359386;28;20065;-79
2022/04/30 22:55:56;;;;;;;5.93;3.07;;;;;;;10.68;73.02;100829.09;31352494;28;20045;-78
2022/04/30 23:10:58;;;;;;;3.63;2.50;;;;;;;10.59;73.29;100826.84;31377671;28;20045;-80
2022/04/30 23:26:00;;;;;;;4.40;2.87;;;;;;;10.50;74.00;100835.44;31374371;28;20477;-78
2022/04/30 23:41:02;;;;;;;5.83;3.13;;;;;;;10.61;74.54;100829.16;31349700;28;20522;-78
2022/04/30 23:56:04;;;;;;;6.27;2.90;;;;;;;10.61;75.37;100829.16;31377164;28;20049;-79
